createdAt,value
2022-12-06T00:00:24.276Z,93908.28
2022-12-06T00:01:28.248Z,93908.38
2022-12-06T00:02:29.839Z,93908.66
2022-12-06T00:03:31.487Z,93901.69
2022-12-06T00:04:33.147Z,93914.28
2022-12-06T00:05:34.735Z,93914.56
2022-12-06T00:06:38.319Z,93913.88
2022-12-06T00:07:39.957Z,93906.50
2022-12-06T00:08:42.265Z,93912.09
2022-12-06T00:09:43.968Z,93908.38
2022-12-06T00:10:45.543Z,93915.09
2022-12-06T00:11:47.274Z,93919.88
2022-12-06T00:12:48.863Z,93923.06
2022-12-06T00:13:53.460Z,93919.34
2022-12-06T00:14:55.054Z,93916.47
2022-12-06T00:16:00.567Z,93921.41
2022-12-06T00:17:02.216Z,93916.88
2022-12-06T00:18:03.918Z,93919.34
2022-12-06T00:19:06.083Z,93921.41
2022-12-06T00:20:08.739Z,93914.56
2022-12-06T00:21:12.526Z,93920.16
2022-12-06T00:22:14.095Z,93921.53
2022-12-06T00:23:15.661Z,93923.19
2022-12-06T00:24:18.955Z,93918.50
2022-12-06T00:25:20.525Z,93921.94
2022-12-06T00:26:22.998Z,93917.84
2022-12-06T00:27:24.594Z,93922.47
2022-12-06T00:28:26.173Z,93919.22
2022-12-06T00:29:27.728Z,93923.59
2022-12-06T00:30:29.283Z,93928.38
2022-12-06T00:31:33.984Z,93925.25
2022-12-06T00:32:35.577Z,93924.94
2022-12-06T00:33:38.014Z,93925.66
2022-12-06T00:34:39.564Z,93922.59
2022-12-06T00:35:41.336Z,93924.41
2022-12-06T00:36:43.673Z,93921.38
2022-12-06T00:37:45.230Z,93920.84
2022-12-06T00:38:47.887Z,93925.78
2022-12-06T00:39:49.428Z,93918.66
2022-12-06T00:40:51.036Z,93920.47
2022-12-06T00:41:55.024Z,93922.22
2022-12-06T00:42:56.580Z,93917.16
2022-12-06T00:43:58.209Z,93912.50
2022-12-06T00:44:59.758Z,93916.44
2022-12-06T00:46:01.477Z,93917.28
2022-12-06T00:47:04.488Z,93913.03
2022-12-06T00:48:06.115Z,93914.28
2022-12-06T00:49:08.938Z,93920.00
2022-12-06T00:50:11.354Z,93912.63
2022-12-06T00:51:14.192Z,93906.47
2022-12-06T00:52:15.764Z,93900.03
2022-12-06T00:53:17.581Z,93907.94
2022-12-06T00:54:19.204Z,93905.50
2022-12-06T00:55:20.784Z,93896.75
2022-12-06T00:56:23.958Z,93899.50
2022-12-06T00:57:25.538Z,93903.19
2022-12-06T00:58:27.196Z,93908.81
2022-12-06T00:59:28.824Z,93898.81
2022-12-06T01:00:30.414Z,93898.97
2022-12-06T01:01:33.521Z,93901.13
2022-12-06T01:02:36.538Z,93901.28
2022-12-06T01:03:38.612Z,93908.00
2022-12-06T01:04:40.235Z,93904.16
2022-12-06T01:05:42.145Z,93910.19
2022-12-06T01:06:43.703Z,93904.84
2022-12-06T01:07:45.325Z,93904.28
2022-12-06T01:08:46.961Z,93908.13
2022-12-06T01:09:48.550Z,93900.47
2022-12-06T01:10:53.878Z,93904.28
2022-12-06T01:11:55.433Z,93893.75
2022-12-06T01:12:56.941Z,93895.66
2022-12-06T01:13:58.609Z,93899.34
2022-12-06T01:15:00.159Z,93897.69
2022-12-06T01:16:05.529Z,93898.53
2022-12-06T01:17:07.094Z,93898.69
2022-12-06T01:18:09.993Z,93895.00
2022-12-06T01:19:12.464Z,93898.25
2022-12-06T01:20:13.990Z,93907.56
2022-12-06T01:21:17.132Z,93902.91
2022-12-06T01:22:18.664Z,93898.41
2022-12-06T01:23:20.170Z,93899.91
2022-12-06T01:24:21.671Z,93894.16
2022-12-06T01:25:25.883Z,93898.41
2022-12-06T01:26:29.898Z,93903.47
2022-12-06T01:27:31.423Z,93895.13
2022-12-06T01:28:33.413Z,93899.66
2022-12-06T01:29:35.672Z,93892.94
2022-12-06T01:30:39.537Z,93895.25
2022-12-06T01:31:41.164Z,93895.94
2022-12-06T01:32:42.694Z,93901.13
2022-12-06T01:33:46.512Z,93897.59
2022-12-06T01:34:48.124Z,93902.25
2022-12-06T01:35:49.773Z,93900.47
2022-12-06T01:36:51.294Z,93896.91
2022-12-06T01:37:52.784Z,93899.34
2022-12-06T01:38:56.194Z,93901.28
2022-12-06T01:39:57.950Z,93902.53
2022-12-06T01:40:59.735Z,93900.31
2022-12-06T01:42:01.288Z,93900.59
2022-12-06T01:43:04.133Z,93897.03
2022-12-06T01:44:06.423Z,93906.31
2022-12-06T01:45:10.217Z,93901.13
2022-12-06T01:46:27.994Z,93899.78
2022-12-06T01:47:32.001Z,93898.25
2022-12-06T01:48:34.701Z,93900.75
2022-12-06T01:49:37.846Z,93890.72
2022-12-06T01:50:39.389Z,93895.38
2022-12-06T01:51:45.025Z,93895.53
2022-12-06T01:52:53.508Z,93898.53
2022-12-06T01:53:55.594Z,93903.63
2022-12-06T01:54:59.376Z,93897.84
2022-12-06T01:56:01.540Z,93894.97
2022-12-06T01:57:05.265Z,93893.31
2022-12-06T01:58:19.097Z,93892.22
2022-12-06T01:59:22.355Z,93888.81
2022-12-06T02:00:24.111Z,93891.56
2022-12-06T02:01:28.430Z,93890.16
2022-12-06T02:02:30.172Z,93893.63
2022-12-06T02:03:33.495Z,93891.69
2022-12-06T02:04:36.080Z,93890.44
2022-12-06T02:05:40.826Z,93894.28
2022-12-06T02:06:43.788Z,93886.47
2022-12-06T02:07:47.077Z,93896.88
2022-12-06T02:08:50.193Z,93886.59
2022-12-06T02:09:52.156Z,93886.47
2022-12-06T02:10:54.305Z,93887.28
2022-12-06T02:11:55.862Z,93890.28
2022-12-06T02:12:59.172Z,93895.78
2022-12-06T02:14:02.303Z,93881.94
2022-12-06T02:15:04.423Z,93883.03
2022-12-06T02:16:19.196Z,93877.13
2022-12-06T02:17:32.776Z,93876.59
2022-12-06T02:18:41.180Z,93872.50
2022-12-06T02:20:03.615Z,93874.69
2022-12-06T02:21:16.072Z,93874.25
2022-12-06T02:22:23.767Z,93870.03
2022-12-06T02:23:47.505Z,93867.59
2022-12-06T02:25:10.409Z,93867.16
2022-12-06T02:26:22.095Z,93864.13
2022-12-06T02:27:42.009Z,93866.06
2022-12-06T02:29:20.169Z,93864.69
2022-12-06T02:30:45.857Z,93862.94
2022-12-06T02:31:55.318Z,93870.75
2022-12-06T02:32:59.876Z,93869.91
2022-12-06T02:34:10.471Z,93857.88
2022-12-06T02:35:19.836Z,93863.78
2022-12-06T02:36:29.237Z,93865.81
2022-12-06T02:37:35.355Z,93861.81
2022-12-06T02:38:44.466Z,93866.47
2022-12-06T02:39:50.021Z,93863.03
2022-12-06T02:40:58.577Z,93866.63
2022-12-06T02:42:06.489Z,93863.31
2022-12-06T02:43:13.254Z,93861.44
2022-12-06T02:44:23.817Z,93856.34
2022-12-06T02:45:29.065Z,93857.31
2022-12-06T02:46:35.420Z,93854.44
2022-12-06T02:47:38.656Z,93856.22
2022-12-06T02:48:58.615Z,93853.09
2022-12-06T02:50:03.313Z,93853.06
2022-12-06T02:51:11.452Z,93846.19
2022-12-06T02:52:14.715Z,93848.81
2022-12-06T02:53:19.165Z,93848.25
2022-12-06T02:54:22.968Z,93840.31
2022-12-06T02:55:24.792Z,93844.75
2022-12-06T02:56:27.753Z,93841.19
2022-12-06T02:57:38.963Z,93834.91
2022-12-06T02:58:40.549Z,93845.56
2022-12-06T02:59:51.185Z,93842.53
2022-12-06T03:00:57.475Z,93847.03
2022-12-06T03:02:03.120Z,93848.72
2022-12-06T03:03:40.012Z,93853.38
2022-12-06T03:04:54.616Z,93844.84
2022-12-06T03:06:16.486Z,93846.06
2022-12-06T03:07:39.777Z,93845.28
2022-12-06T03:08:47.987Z,93845.03
2022-12-06T03:09:58.773Z,93846.25
2022-12-06T03:11:02.499Z,93845.84
2022-12-06T03:12:11.402Z,93838.59
2022-12-06T03:13:16.400Z,93838.72
2022-12-06T03:14:22.087Z,93838.16
2022-12-06T03:15:36.458Z,93835.44
2022-12-06T03:16:43.566Z,93842.69
2022-12-06T03:17:51.187Z,93837.63
2022-12-06T03:18:58.996Z,93842.00
2022-12-06T03:20:05.710Z,93837.34
2022-12-06T03:21:10.959Z,93827.50
2022-12-06T03:22:20.662Z,93838.97
2022-12-06T03:23:24.993Z,93835.16
2022-12-06T03:24:28.452Z,93833.25
2022-12-06T03:25:31.244Z,93831.72
2022-12-06T03:26:34.322Z,93834.31
2022-12-06T03:27:36.464Z,93828.59
2022-12-06T03:28:39.124Z,93827.09
2022-12-06T03:29:45.358Z,93832.03
2022-12-06T03:30:50.409Z,93822.97
2022-12-06T03:31:53.536Z,93830.91
2022-12-06T03:32:56.387Z,93825.69
2022-12-06T03:34:02.338Z,93815.16
2022-12-06T03:35:07.223Z,93819.25
2022-12-06T03:36:10.830Z,93817.34
2022-12-06T03:37:17.353Z,93821.59
2022-12-06T03:38:24.105Z,93815.00
2022-12-06T03:39:31.597Z,93824.75
2022-12-06T03:40:36.643Z,93818.72
2022-12-06T03:41:42.302Z,93816.97
2022-12-06T03:42:43.841Z,93819.41
2022-12-06T03:43:45.659Z,93825.03
2022-12-06T03:44:47.323Z,93823.00
2022-12-06T03:45:55.238Z,93823.81
2022-12-06T03:47:03.761Z,93831.72
2022-12-06T03:48:10.911Z,93835.00
2022-12-06T03:49:17.065Z,93825.94
2022-12-06T03:50:24.191Z,93820.31
2022-12-06T03:51:28.500Z,93822.13
2022-12-06T03:52:30.394Z,93824.59
2022-12-06T03:53:32.163Z,93821.56
2022-12-06T03:54:33.693Z,93822.53
2022-12-06T03:55:35.203Z,93824.03
2022-12-06T03:56:38.058Z,93823.91
2022-12-06T03:57:39.583Z,93824.03
2022-12-06T03:58:41.148Z,93822.38
2022-12-06T03:59:42.697Z,93824.28
2022-12-06T04:00:44.782Z,93823.78
2022-12-06T04:01:46.361Z,93814.19
2022-12-06T04:02:47.927Z,93822.81
2022-12-06T04:03:51.138Z,93820.22
2022-12-06T04:04:52.713Z,93828.84
2022-12-06T04:05:54.200Z,93822.53
2022-12-06T04:06:55.793Z,93819.47
2022-12-06T04:07:57.340Z,93819.41
2022-12-06T04:08:58.914Z,93819.94
2022-12-06T04:10:00.766Z,93819.13
2022-12-06T04:11:02.604Z,93810.88
2022-12-06T04:12:04.310Z,93815.00
2022-12-06T04:13:05.897Z,93813.75
2022-12-06T04:14:07.488Z,93808.19
2022-12-06T04:15:10.806Z,93811.16
2022-12-06T04:16:12.346Z,93809.66
2022-12-06T04:17:13.876Z,93798.06
2022-12-06T04:18:16.287Z,93797.88
2022-12-06T04:19:19.264Z,93799.22
2022-12-06T04:20:21.911Z,93794.22
2022-12-06T04:21:23.453Z,93782.03
2022-12-06T04:22:24.969Z,93783.38
2022-12-06T04:23:27.114Z,93777.38
2022-12-06T04:24:28.618Z,93786.81
2022-12-06T04:25:30.388Z,93790.09
2022-12-06T04:26:31.932Z,93785.97
2022-12-06T04:27:33.449Z,93786.78
2022-12-06T04:28:35.114Z,93794.84
2022-12-06T04:29:36.618Z,93793.09
2022-12-06T04:30:38.651Z,93796.28
2022-12-06T04:31:40.718Z,93796.72
2022-12-06T04:32:42.235Z,93806.81
2022-12-06T04:33:43.734Z,93805.78
2022-12-06T04:34:46.554Z,93801.44
2022-12-06T04:35:48.088Z,93804.41
2022-12-06T04:36:50.045Z,93808.47
2022-12-06T04:38:09.799Z,93804.78
2022-12-06T04:39:15.046Z,93812.31
2022-12-06T04:40:19.165Z,93810.91
2022-12-06T04:41:20.691Z,93814.91
2022-12-06T04:42:22.245Z,93815.13
2022-12-06T04:43:23.751Z,93806.91
2022-12-06T04:44:25.298Z,93807.94
2022-12-06T04:45:26.834Z,93809.75
2022-12-06T04:46:28.442Z,93817.69
2022-12-06T04:47:30.066Z,93813.47
2022-12-06T04:48:31.571Z,93816.66
2022-12-06T04:49:33.274Z,93814.13
2022-12-06T04:50:36.173Z,93810.38
2022-12-06T04:51:37.730Z,93810.03
2022-12-06T04:52:39.271Z,93809.81
2022-12-06T04:53:40.809Z,93806.28
2022-12-06T04:54:42.752Z,93809.78
2022-12-06T04:55:46.053Z,93807.16
2022-12-06T04:56:47.994Z,93807.56
2022-12-06T04:57:49.518Z,93809.91
2022-12-06T04:58:51.134Z,93799.00
2022-12-06T04:59:52.709Z,93808.19
2022-12-06T05:00:54.969Z,93808.28
2022-12-06T05:01:57.050Z,93809.53
2022-12-06T05:02:58.539Z,93809.94
2022-12-06T05:04:00.165Z,93814.41
2022-12-06T05:05:01.718Z,93804.34
2022-12-06T05:06:05.141Z,93800.38
2022-12-06T05:07:06.762Z,93802.31
2022-12-06T05:08:08.854Z,93809.13
2022-12-06T05:09:10.493Z,93803.34
2022-12-06T05:10:12.077Z,93798.84
2022-12-06T05:11:13.577Z,93802.41
2022-12-06T05:12:15.079Z,93804.06
2022-12-06T05:13:18.416Z,93801.09
2022-12-06T05:14:19.943Z,93802.16
2022-12-06T05:15:23.670Z,93796.97
2022-12-06T05:16:28.279Z,93794.22
2022-12-06T05:17:29.853Z,93792.97
2022-12-06T05:18:31.818Z,93791.88
2022-12-06T05:19:33.380Z,93796.16
2022-12-06T05:20:34.929Z,93798.56
2022-12-06T05:21:38.297Z,93796.00
2022-12-06T05:22:39.818Z,93799.69
2022-12-06T05:23:42.155Z,93796.53
2022-12-06T05:24:43.753Z,93794.22
2022-12-06T05:25:45.251Z,93787.78
2022-12-06T05:26:46.765Z,93788.75
2022-12-06T05:27:48.406Z,93784.50
2022-12-06T05:28:50.208Z,93788.06
2022-12-06T05:29:51.755Z,93777.84
2022-12-06T05:30:53.368Z,93782.50
2022-12-06T05:31:54.929Z,93780.44
2022-12-06T05:32:57.266Z,93783.03
2022-12-06T05:33:58.831Z,93784.00
2022-12-06T05:35:00.443Z,93783.47
2022-12-06T05:36:06.500Z,93782.91
2022-12-06T05:37:09.379Z,93781.81
2022-12-06T05:38:10.923Z,93775.03
2022-12-06T05:39:12.501Z,93785.94
2022-12-06T05:40:14.280Z,93777.31
2022-12-06T05:41:15.980Z,93779.63
2022-12-06T05:42:23.298Z,93778.69
2022-12-06T05:43:24.830Z,93778.84
2022-12-06T05:44:26.443Z,93774.88
2022-12-06T05:45:27.980Z,93775.41
2022-12-06T05:46:29.567Z,93774.91
2022-12-06T05:47:31.195Z,93784.44
2022-12-06T05:48:33.141Z,93780.38
2022-12-06T05:49:34.653Z,93777.91
2022-12-06T05:50:36.805Z,93772.66
2022-12-06T05:51:38.903Z,93786.47
2022-12-06T05:52:47.732Z,93780.19
2022-12-06T05:53:49.284Z,93784.66
2022-12-06T05:54:50.780Z,93784.72
2022-12-06T05:55:52.309Z,93783.88
2022-12-06T05:56:53.822Z,93780.97
2022-12-06T05:57:55.340Z,93783.19
2022-12-06T05:58:56.878Z,93782.78
2022-12-06T05:59:58.690Z,93784.03
2022-12-06T06:01:00.841Z,93792.25
2022-12-06T06:02:02.635Z,93784.41
2022-12-06T06:03:05.097Z,93779.41
2022-12-06T06:04:06.785Z,93789.78
2022-12-06T06:05:08.972Z,93782.41
2022-12-06T06:06:10.490Z,93779.13
2022-12-06T06:07:11.997Z,93778.25
2022-12-06T06:08:14.962Z,93786.84
2022-12-06T06:09:17.243Z,93781.34
2022-12-06T06:10:19.551Z,93775.78
2022-12-06T06:11:21.274Z,93781.94
2022-12-06T06:12:24.348Z,93779.34
2022-12-06T06:13:26.262Z,93782.50
2022-12-06T06:14:27.813Z,93766.09
2022-12-06T06:15:29.400Z,93776.56
2022-12-06T06:16:30.996Z,93774.28
2022-12-06T06:17:32.904Z,93770.97
2022-12-06T06:18:34.460Z,93777.84
2022-12-06T06:19:35.966Z,93780.00
2022-12-06T06:20:37.471Z,93771.50
2022-12-06T06:21:39.060Z,93766.50
2022-12-06T06:22:41.307Z,93772.56
2022-12-06T06:23:44.135Z,93772.56
2022-12-06T06:24:45.962Z,93772.31
2022-12-06T06:25:47.629Z,93776.25
2022-12-06T06:26:49.372Z,93766.41
2022-12-06T06:27:50.914Z,93770.34
2022-12-06T06:28:52.404Z,93765.31
2022-12-06T06:29:53.946Z,93765.16
2022-12-06T06:30:55.439Z,93763.38
2022-12-06T06:31:57.064Z,93761.91
2022-12-06T06:32:58.607Z,93762.47
2022-12-06T06:34:00.090Z,93765.34
2022-12-06T06:35:01.910Z,93767.25
2022-12-06T06:36:03.889Z,93770.53
2022-12-06T06:37:05.351Z,93775.31
2022-12-06T06:38:07.331Z,93769.72
2022-12-06T06:39:10.163Z,93770.25
2022-12-06T06:40:12.092Z,93775.84
2022-12-06T06:41:13.603Z,93774.75
2022-12-06T06:42:15.106Z,93782.72
2022-12-06T06:43:16.643Z,93770.00
2022-12-06T06:44:18.167Z,93779.00
2022-12-06T06:45:23.796Z,93784.63
2022-12-06T06:46:28.446Z,93777.34
2022-12-06T06:47:29.961Z,93775.97
2022-12-06T06:48:34.080Z,93780.47
2022-12-06T06:49:35.869Z,93782.09
2022-12-06T06:50:37.401Z,93782.53
2022-12-06T06:51:39.054Z,93777.56
2022-12-06T06:52:40.691Z,93776.34
2022-12-06T06:53:42.215Z,93779.75
2022-12-06T06:54:45.064Z,93780.78
2022-12-06T06:55:47.389Z,93778.53
2022-12-06T06:56:48.998Z,93778.84
2022-12-06T06:57:50.513Z,93775.03
2022-12-06T06:58:52.156Z,93777.50
2022-12-06T06:59:53.715Z,93773.69
2022-12-06T07:00:57.086Z,93776.81
2022-12-06T07:01:58.881Z,93778.63
2022-12-06T07:03:00.622Z,93780.28
2022-12-06T07:04:02.217Z,93780.81
2022-12-06T07:05:03.945Z,93788.16
2022-12-06T07:06:09.306Z,93781.84
2022-12-06T07:07:10.875Z,93779.28
2022-12-06T07:08:18.260Z,93778.03
2022-12-06T07:09:19.833Z,93780.78
2022-12-06T07:10:22.851Z,93780.53
2022-12-06T07:11:24.354Z,93783.72
2022-12-06T07:12:25.917Z,93789.84
2022-12-06T07:13:28.385Z,93786.91
2022-12-06T07:14:30.285Z,93779.25
2022-12-06T07:15:31.796Z,93780.38
2022-12-06T07:16:33.437Z,93786.94
2022-12-06T07:17:35.025Z,93784.78
2022-12-06T07:18:36.568Z,93785.72
2022-12-06T07:19:38.053Z,93780.94
2022-12-06T07:20:39.563Z,93784.50
2022-12-06T07:21:41.109Z,93787.22
2022-12-06T07:22:42.622Z,93781.34
2022-12-06T07:23:44.158Z,93777.81
2022-12-06T07:24:50.859Z,93778.66
2022-12-06T07:26:01.968Z,93785.19
2022-12-06T07:27:03.654Z,93783.69
2022-12-06T07:28:05.353Z,93779.88
2022-12-06T07:29:06.856Z,93791.34
2022-12-06T07:30:12.157Z,93795.31
2022-12-06T07:31:19.329Z,93786.00
2022-12-06T07:32:20.870Z,93792.72
2022-12-06T07:33:22.406Z,93784.38
2022-12-06T07:34:23.937Z,93782.03
2022-12-06T07:35:36.892Z,93782.03
2022-12-06T07:36:43.877Z,93784.50
2022-12-06T07:37:46.122Z,93784.50
2022-12-06T07:38:48.925Z,93777.00
2022-12-06T07:39:50.452Z,93779.59
2022-12-06T07:41:07.208Z,93782.16
2022-12-06T07:42:10.311Z,93780.81
2022-12-06T07:43:11.811Z,93783.00
2022-12-06T07:44:15.075Z,93784.09
2022-12-06T07:45:16.651Z,93777.53
2022-12-06T07:46:18.261Z,93786.44
2022-12-06T07:47:19.828Z,93783.28
2022-12-06T07:48:21.355Z,93781.09
2022-12-06T07:49:25.447Z,93783.03
2022-12-06T07:50:26.988Z,93772.91
2022-12-06T07:51:28.561Z,93785.63
2022-12-06T07:52:31.690Z,93781.41
2022-12-06T07:53:33.263Z,93776.88
2022-12-06T07:54:34.771Z,93781.25
2022-12-06T07:55:36.295Z,93781.94
2022-12-06T07:56:38.249Z,93784.38
2022-12-06T07:57:43.700Z,93785.09
2022-12-06T07:58:45.577Z,93786.59
2022-12-06T07:59:47.129Z,93774.53
2022-12-06T08:00:48.666Z,93773.59
2022-12-06T08:01:51.223Z,93774.69
2022-12-06T08:02:52.787Z,93774.53
2022-12-06T08:03:54.468Z,93772.09
2022-12-06T08:04:56.092Z,93773.59
2022-12-06T08:05:57.640Z,93775.25
2022-12-06T08:06:59.347Z,93772.22
2022-12-06T08:08:01.002Z,93773.03
2022-12-06T08:09:03.340Z,93775.50
2022-12-06T08:10:06.516Z,93778.78
2022-12-06T08:11:08.841Z,93770.84
2022-12-06T08:12:10.366Z,93768.50
2022-12-06T08:13:13.185Z,93771.81
2022-12-06T08:14:14.785Z,93765.66
2022-12-06T08:15:16.362Z,93767.69
2022-12-06T08:16:33.085Z,93775.78
2022-12-06T08:17:34.595Z,93769.06
2022-12-06T08:18:36.310Z,93771.63
2022-12-06T08:19:37.859Z,93769.31
2022-12-06T08:20:39.444Z,93769.47
2022-12-06T08:21:41.017Z,93764.38
2022-12-06T08:22:42.507Z,93763.03
2022-12-06T08:23:45.265Z,93771.81
2022-12-06T08:24:46.843Z,93764.13
2022-12-06T08:25:56.526Z,93770.44
2022-12-06T08:26:58.519Z,93768.25
2022-12-06T08:28:00.098Z,93766.59
2022-12-06T08:29:03.963Z,93767.00
2022-12-06T08:30:06.866Z,93766.88
2022-12-06T08:31:09.954Z,93762.94
2022-12-06T08:32:11.583Z,93767.41
2022-12-06T08:33:13.080Z,93761.25
2022-12-06T08:34:14.629Z,93758.13
2022-12-06T08:35:16.182Z,93768.13
2022-12-06T08:36:21.299Z,93762.38
2022-12-06T08:37:22.792Z,93763.72
2022-12-06T08:38:24.301Z,93768.78
2022-12-06T08:39:25.779Z,93763.88
2022-12-06T08:40:27.312Z,93762.94
2022-12-06T08:41:28.889Z,93765.09
2022-12-06T08:42:30.428Z,93772.91
2022-12-06T08:43:32.117Z,93768.66
2022-12-06T08:44:34.990Z,93770.47
2022-12-06T08:45:36.538Z,93770.59
2022-12-06T08:46:38.444Z,93771.66
2022-12-06T08:47:40.025Z,93765.66
2022-12-06T08:48:43.515Z,93766.06
2022-12-06T08:49:45.278Z,93773.56
2022-12-06T08:50:46.771Z,93768.78
2022-12-06T08:51:48.479Z,93766.84
2022-12-06T08:52:50.051Z,93766.56
2022-12-06T08:53:52.516Z,93768.22
2022-12-06T08:54:54.026Z,93767.94
2022-12-06T08:56:02.115Z,93766.03
2022-12-06T08:57:04.409Z,93765.47
2022-12-06T08:58:05.957Z,93764.81
2022-12-06T08:59:07.520Z,93768.63
2022-12-06T09:00:12.557Z,93776.97
2022-12-06T09:01:16.643Z,93772.06
2022-12-06T09:02:18.321Z,93778.06
2022-12-06T09:03:19.963Z,93775.38
2022-12-06T09:04:21.629Z,93774.41
2022-12-06T09:05:23.233Z,93774.66
2022-12-06T09:06:25.102Z,93777.41
2022-12-06T09:07:26.660Z,93774.50
2022-12-06T09:08:28.171Z,93771.34
2022-12-06T09:09:29.735Z,93774.38
2022-12-06T09:10:31.242Z,93774.38
2022-12-06T09:11:32.748Z,93777.94
2022-12-06T09:12:34.293Z,93777.28
2022-12-06T09:13:36.986Z,93772.88
2022-12-06T09:14:38.805Z,93778.59
2022-12-06T09:15:41.713Z,93774.19
2022-12-06T09:16:44.647Z,93780.63
2022-12-06T09:17:46.154Z,93776.97
2022-12-06T09:18:48.982Z,93780.38
2022-12-06T09:19:50.544Z,93776.25
2022-12-06T09:20:52.105Z,93780.13
2022-12-06T09:21:53.879Z,93778.28
2022-12-06T09:22:55.444Z,93782.13
2022-12-06T09:23:58.131Z,93784.03
2022-12-06T09:24:59.627Z,93783.13
2022-12-06T09:26:01.219Z,93784.47
2022-12-06T09:27:02.843Z,93779.31
2022-12-06T09:28:04.716Z,93787.94
2022-12-06T09:29:06.588Z,93779.31
2022-12-06T09:30:09.248Z,93777.78
2022-12-06T09:31:12.143Z,93785.19
2022-12-06T09:32:13.743Z,93773.41
2022-12-06T09:33:15.240Z,93779.84
2022-12-06T09:34:17.122Z,93778.34
2022-12-06T09:35:24.743Z,93777.09
2022-12-06T09:36:28.502Z,93780.75
2022-12-06T09:37:30.040Z,93776.03
2022-12-06T09:38:35.721Z,93769.31
2022-12-06T09:39:40.702Z,93772.09
2022-12-06T09:40:57.967Z,93771.47
2022-12-06T09:42:32.730Z,93769.72
2022-12-06T09:43:45.821Z,93776.41
2022-12-06T09:45:03.590Z,93770.25
2022-12-06T09:46:25.618Z,93779.94
2022-12-06T09:47:38.241Z,93780.34
2022-12-06T09:49:00.485Z,93784.50
2022-12-06T09:50:12.403Z,93784.91
2022-12-06T09:51:26.487Z,93774.50
2022-12-06T09:52:51.859Z,93779.88
2022-12-06T09:54:06.865Z,93782.88
2022-12-06T09:55:28.468Z,93781.75
2022-12-06T09:56:36.097Z,93785.78
2022-12-06T09:57:43.292Z,93783.00
2022-12-06T09:59:10.963Z,93785.72
2022-12-06T10:00:22.094Z,93789.72
2022-12-06T10:01:36.788Z,93784.91
2022-12-06T10:03:03.333Z,93784.66
2022-12-06T10:04:35.825Z,93786.88
2022-12-06T10:05:51.822Z,93783.69
2022-12-06T10:07:03.972Z,93782.06
2022-12-06T10:08:21.588Z,93778.78
2022-12-06T10:09:35.288Z,93779.84
2022-12-06T10:10:51.854Z,93780.56
2022-12-06T10:12:09.638Z,93775.94
2022-12-06T10:13:13.470Z,93774.69
2022-12-06T10:14:27.780Z,93771.13
2022-12-06T10:15:37.044Z,93771.00
2022-12-06T10:16:50.282Z,93767.97
2022-12-06T10:18:18.858Z,93774.25
2022-12-06T10:19:50.159Z,93767.28
2022-12-06T10:20:58.943Z,93769.31
2022-12-06T10:22:12.251Z,93771.66
2022-12-06T10:23:28.429Z,93769.19
2022-12-06T10:24:46.447Z,93769.06
2022-12-06T10:25:58.674Z,93770.28
2022-12-06T10:27:08.322Z,93768.91
2022-12-06T10:28:13.302Z,93765.63
2022-12-06T10:29:23.132Z,93768.63
2022-12-06T10:30:29.394Z,93770.28
2022-12-06T10:31:37.916Z,93759.63
2022-12-06T10:32:50.796Z,93760.69
2022-12-06T10:33:55.726Z,93760.97
2022-12-06T10:34:58.933Z,93758.66
2022-12-06T10:36:03.123Z,93759.78
2022-12-06T10:37:16.883Z,93760.06
2022-12-06T10:38:33.259Z,93756.22
2022-12-06T10:39:51.718Z,93758.81
2022-12-06T10:41:04.353Z,93758.81
2022-12-06T10:42:12.718Z,93752.91
2022-12-06T10:43:21.989Z,93745.53
2022-12-06T10:44:30.174Z,93758.50
2022-12-06T10:45:38.165Z,93757.44
2022-12-06T10:46:44.031Z,93745.53
2022-12-06T10:47:47.184Z,93755.91
2022-12-06T10:48:58.135Z,93751.25
2022-12-06T10:50:05.278Z,93747.13
2022-12-06T10:51:12.037Z,93754.38
2022-12-06T10:52:26.639Z,93757.25
2022-12-06T10:53:34.969Z,93762.59
2022-12-06T10:54:43.691Z,93752.16
2022-12-06T10:55:49.872Z,93756.81
2022-12-06T10:56:56.490Z,93758.91
2022-12-06T10:58:15.790Z,93757.25
2022-12-06T10:59:27.631Z,93757.22
2022-12-06T11:00:34.387Z,93751.91
2022-12-06T11:01:41.180Z,93762.31
2022-12-06T11:02:51.701Z,93755.13
2022-12-06T11:04:00.079Z,93752.66
2022-12-06T11:05:07.638Z,93755.88
2022-12-06T11:06:13.969Z,93749.00
2022-12-06T11:07:20.797Z,93755.13
2022-12-06T11:08:29.997Z,93743.28
2022-12-06T11:09:37.912Z,93747.88
2022-12-06T11:10:41.802Z,93741.50
2022-12-06T11:11:45.247Z,93741.13
2022-12-06T11:12:53.438Z,93739.16
2022-12-06T11:14:01.358Z,93737.19
2022-12-06T11:15:13.196Z,93734.31
2022-12-06T11:16:18.723Z,93730.69
2022-12-06T11:17:24.795Z,93726.84
2022-12-06T11:18:29.357Z,93736.50
2022-12-06T11:19:35.428Z,93729.97
2022-12-06T11:20:41.517Z,93735.69
2022-12-06T11:21:52.446Z,93732.84
2022-12-06T11:23:10.897Z,93725.44
2022-12-06T11:24:18.060Z,93720.84
2022-12-06T11:25:26.883Z,93733.56
2022-12-06T11:26:36.087Z,93730.81
2022-12-06T11:27:46.267Z,93730.81
2022-12-06T11:28:54.712Z,93731.34
2022-12-06T11:29:56.227Z,93728.28
2022-12-06T11:30:58.377Z,93726.47
2022-12-06T11:32:01.825Z,93724.38
2022-12-06T11:33:04.206Z,93726.69
2022-12-06T11:34:16.178Z,93726.00
2022-12-06T11:35:21.288Z,93729.22
2022-12-06T11:36:24.494Z,93731.13
2022-12-06T11:37:30.256Z,93730.56
2022-12-06T11:38:33.516Z,93728.50
2022-12-06T11:39:35.116Z,93726.41
2022-12-06T11:40:42.096Z,93715.31
2022-12-06T11:41:46.926Z,93725.03
2022-12-06T11:42:48.803Z,93721.81
2022-12-06T11:43:51.823Z,93719.22
2022-12-06T11:44:55.193Z,93714.53
2022-12-06T11:45:57.634Z,93718.31
2022-12-06T11:47:02.113Z,93717.56
2022-12-06T11:48:15.482Z,93724.84
2022-12-06T11:49:26.447Z,93718.69
2022-12-06T11:50:29.910Z,93720.19
2022-12-06T11:51:31.450Z,93717.38
2022-12-06T11:52:37.182Z,93717.47
2022-12-06T11:53:44.644Z,93715.56
2022-12-06T11:54:51.561Z,93715.56
2022-12-06T11:56:15.120Z,93716.00
2022-12-06T11:57:23.015Z,93717.84
2022-12-06T11:58:30.278Z,93716.22
2022-12-06T11:59:38.018Z,93715.47
2022-12-06T12:01:00.502Z,93719.22
2022-12-06T12:02:03.359Z,93717.31
2022-12-06T12:03:24.990Z,93718.03
2022-12-06T12:04:39.327Z,93715.03
2022-12-06T12:05:40.873Z,93720.06
2022-12-06T12:06:42.483Z,93730.06
2022-12-06T12:07:47.630Z,93727.94
2022-12-06T12:08:58.604Z,93721.97
2022-12-06T12:10:03.035Z,93715.50
2022-12-06T12:11:04.994Z,93715.84
2022-12-06T12:12:15.462Z,93715.25
2022-12-06T12:13:21.293Z,93718.38
2022-12-06T12:14:26.684Z,93707.78
2022-12-06T12:15:28.408Z,93709.00
2022-12-06T12:16:35.371Z,93713.06
2022-12-06T12:17:37.066Z,93701.19
2022-12-06T12:18:42.030Z,93708.97
2022-12-06T12:19:49.279Z,93706.41
2022-12-06T12:20:51.950Z,93699.97
2022-12-06T12:21:55.974Z,93700.84
2022-12-06T12:23:00.603Z,93706.09
2022-12-06T12:24:02.612Z,93703.09
2022-12-06T12:25:21.752Z,93699.63
2022-12-06T12:26:23.868Z,93699.34
2022-12-06T12:27:34.792Z,93694.47
2022-12-06T12:28:37.377Z,93699.22
2022-12-06T12:29:38.960Z,93703.91
2022-12-06T12:30:52.597Z,93701.38
2022-12-06T12:31:57.220Z,93701.94
2022-12-06T12:33:22.142Z,93702.63
2022-12-06T12:34:26.334Z,93703.56
2022-12-06T12:35:29.311Z,93701.41
2022-12-06T12:36:31.311Z,93704.69
2022-12-06T12:37:37.269Z,93702.53
2022-12-06T12:38:42.381Z,93702.84
2022-12-06T12:39:50.602Z,93699.53
2022-12-06T12:40:54.711Z,93698.66